Time;durP1;ratioP1;P1;durP2;ratioP2;P2;SDS_P1;SDS_P2;PMS_P1;PMS_P2;Temp;Humidity;BMP_temperature;BMP_pressure;BME280_temperature;BME280_humidity;BME280_pressure;Samples;Min_cycle;Max_cycle;Signal;HPM_P1;HPM_P2
2023/09/29 00:00:35;;;;;;;6.20;4.83;;;;;;;19.19;60.44;101423.00;5036578;27;98132;-56
2023/09/29 00:03:01;;;;;;;4.83;4.43;;;;;;;19.19;60.36;101427.84;5037486;27;97059;-56
2023/09/29 00:05:27;;;;;;;4.90;4.43;;;;;;;19.15;60.34;101421.81;5037592;27;97512;-56
2023/09/29 00:07:53;;;;;;;4.90;4.40;;;;;;;19.15;60.44;101427.41;5036991;27;99926;-56
2023/09/29 00:10:20;;;;;;;4.67;4.20;;;;;;;19.15;60.50;101444.13;5035176;27;97538;-56
2023/09/29 00:12:48;;;;;;;4.63;4.33;;;;;;;19.15;60.62;101433.75;5035053;27;97143;-56
2023/09/29 00:15:13;;;;;;;4.47;4.13;;;;;;;19.15;60.59;101435.78;5037597;27;97030;-56
2023/09/29 00:17:39;;;;;;;6.60;4.53;;;;;;;19.13;60.56;101429.97;5036585;27;97439;-56
2023/09/29 00:20:38;;;;;;;4.40;4.07;;;;;;;19.11;60.72;101429.75;5034958;27;97286;-56
2023/09/29 00:22:58;;;;;;;5.77;4.07;;;;;;;19.08;60.53;101417.63;5035693;27;96720;-56
2023/09/29 00:25:24;;;;;;;4.83;4.43;;;;;;;19.05;60.29;101418.69;5036047;27;97098;-56
2023/09/29 00:27:50;;;;;;;6.40;4.80;;;;;;;19.02;60.33;101425.34;5035830;27;97272;-56
2023/09/29 00:30:16;;;;;;;4.67;4.30;;;;;;;19.00;60.47;101433.47;5037022;27;97940;-56
2023/09/29 00:32:45;;;;;;;4.73;4.40;;;;;;;19.01;60.81;101423.81;5035161;27;97173;-56
2023/09/29 00:35:11;;;;;;;4.47;4.17;;;;;;;19.01;60.65;101421.03;5038264;27;97052;-56
2023/09/29 00:37:36;;;;;;;4.73;4.43;;;;;;;19.01;60.70;101415.47;5038851;27;97052;-56
2023/09/29 00:40:09;;;;;;;5.10;4.70;;;;;;;19.01;60.49;101411.91;5037889;27;97897;-56
2023/09/29 00:42:36;;;;;;;8.17;4.50;;;;;;;18.98;60.64;101416.50;5040029;27;97094;-56
2023/09/29 00:45:03;;;;;;;4.40;4.10;;;;;;;18.98;60.62;101413.72;5038518;27;102863;-56
2023/09/29 00:47:29;;;;;;;6.27;5.63;;;;;;;18.98;60.68;101410.94;5037000;27;97112;-56
2023/09/29 00:49:54;;;;;;;4.13;3.80;;;;;;;18.90;60.70;101415.63;5037665;27;97864;-56
2023/09/29 00:52:23;;;;;;;4.97;4.67;;;;;;;18.90;60.76;101421.22;5036432;27;97764;-56
2023/09/29 00:54:50;;;;;;;4.73;4.43;;;;;;;18.93;60.87;101413.81;5035092;27;97167;-56
2023/09/29 00:57:16;;;;;;;5.57;4.50;;;;;;;18.95;60.85;101419.63;5034889;27;96793;-56
2023/09/29 00:59:43;;;;;;;4.10;3.77;;;;;;;18.96;60.73;101415.56;5035583;27;97299;-56
2023/09/29 01:02:10;;;;;;;6.00;4.60;;;;;;;18.95;60.84;101414.81;5035198;27;96670;-56
2023/09/29 01:04:36;;;;;;;5.03;4.50;;;;;;;18.95;60.97;101405.69;5038854;27;97507;-56
2023/09/29 01:07:03;;;;;;;5.17;4.63;;;;;;;18.95;60.98;101411.25;5035030;27;97023;-56
2023/09/29 01:09:29;;;;;;;5.40;5.00;;;;;;;18.93;60.74;101411.78;5033185;27;97373;-56
2023/09/29 01:11:55;;;;;;;4.50;4.20;;;;;;;18.92;60.77;101409.50;5038000;27;97635;-56
2023/09/29 01:14:21;;;;;;;4.73;4.37;;;;;;;18.90;60.80;101407.28;5035699;27;96866;-56
2023/09/29 01:16:46;;;;;;;4.63;4.27;;;;;;;18.88;61.03;101409.09;5035690;27;96854;-56
2023/09/29 01:19:12;;;;;;;4.60;4.30;;;;;;;18.85;61.02;101405.31;5034278;27;97548;-56
2023/09/29 01:21:47;;;;;;;4.80;4.43;;;;;;;18.81;60.70;101407.66;5035342;27;97238;-56
2023/09/29 01:24:13;;;;;;;5.47;4.97;;;;;;;18.78;60.94;101405.19;5037768;27;96859;-56
2023/09/29 01:26:38;;;;;;;5.03;4.63;;;;;;;18.77;61.25;101387.72;5035348;27;97214;-56
2023/09/29 01:29:04;;;;;;;4.93;4.53;;;;;;;18.77;60.95;101392.53;5036232;27;97454;-56
2023/09/29 01:31:31;;;;;;;5.40;4.60;;;;;;;18.77;60.99;101395.31;5034159;27;97219;-56
2023/09/29 01:33:57;;;;;;;5.03;4.63;;;;;;;18.76;61.07;101386.22;5035846;27;97164;-56
2023/09/29 01:36:22;;;;;;;5.33;4.90;;;;;;;18.76;61.12;101391.81;5034117;27;97067;-56
2023/09/29 01:38:48;;;;;;;5.90;5.40;;;;;;;18.75;61.24;101383.94;5035059;27;102466;-56
2023/09/29 01:41:14;;;;;;;4.83;4.43;;;;;;;18.73;61.41;101386.53;5033320;27;96797;-56
2023/09/29 01:43:40;;;;;;;4.77;4.37;;;;;;;18.73;61.48;101392.09;5037173;27;97240;-56
2023/09/29 01:46:07;;;;;;;4.93;4.57;;;;;;;18.75;61.37;101397.88;5033416;27;96803;-56
2023/09/29 01:48:33;;;;;;;5.73;5.23;;;;;;;18.77;61.25;101395.31;5033553;27;97418;-56
2023/09/29 01:51:01;;;;;;;5.30;4.80;;;;;;;18.78;61.54;101397.59;5038422;27;96814;-56
2023/09/29 01:53:30;;;;;;;4.60;4.30;;;;;;;18.79;61.60;101398.31;5034647;27;97024;-56
2023/09/29 01:55:55;;;;;;;5.30;4.90;;;;;;;18.80;61.40;101391.47;5035679;27;97364;-56
2023/09/29 01:58:21;;;;;;;4.97;4.20;;;;;;;18.80;61.50;101389.44;5037457;27;97111;-56
2023/09/29 02:00:46;;;;;;;9.13;4.90;;;;;;;18.80;61.48;101405.41;5038337;27;97055;-56
2023/09/29 02:03:11;;;;;;;4.90;4.50;;;;;;;18.80;61.50;101406.19;5035565;27;97065;-56
2023/09/29 02:05:37;;;;;;;9.60;5.10;;;;;;;18.80;61.55;101403.41;5034779;27;101672;-56
2023/09/29 02:08:04;;;;;;;5.20;4.70;;;;;;;18.80;62.04;101403.41;5037467;27;97041;-56
2023/09/29 02:10:29;;;;;;;4.87;4.47;;;;;;;18.82;61.73;101400.81;5033360;27;97445;-56
2023/09/29 02:12:57;;;;;;;11.40;5.30;;;;;;;18.80;61.75;101397.06;5035374;27;97077;-56
2023/09/29 02:15:23;;;;;;;5.17;4.67;;;;;;;18.79;61.79;101393.50;5035746;27;97038;-55
2023/09/29 02:17:49;;;;;;;5.10;4.70;;;;;;;18.81;61.85;101393.72;5035343;27;97367;-56
2023/09/29 02:20:20;;;;;;;5.30;4.83;;;;;;;18.81;61.78;101382.56;5035795;27;97271;-56
2023/09/29 02:22:47;;;;;;;4.67;4.27;;;;;;;18.81;61.89;101384.59;5033572;27;97111;-56
2023/09/29 02:25:15;;;;;;;5.23;4.80;;;;;;;18.80;62.01;101389.44;5035174;27;97106;-56
2023/09/29 02:27:41;;;;;;;4.70;4.40;;;;;;;18.78;61.98;101377.31;5034044;27;97925;-56
2023/09/29 02:30:09;;;;;;;5.10;4.80;;;;;;;18.78;62.02;101380.88;5033498;27;96666;-56
2023/09/29 02:32:38;;;;;;;4.70;4.40;;;;;;;18.76;62.14;101374.31;5034253;27;96649;-56
2023/09/29 02:35:04;;;;;;;5.37;4.30;;;;;;;18.74;62.12;101371.31;5035394;27;97306;-56
2023/09/29 02:37:30;;;;;;;5.20;4.70;;;;;;;18.74;62.22;101366.47;5037132;27;97982;-56
2023/09/29 02:39:55;;;;;;;5.57;5.17;;;;;;;18.75;62.28;101376.34;5034040;27;97237;-56
2023/09/29 02:42:20;;;;;;;4.63;4.23;;;;;;;18.78;62.24;101366.16;5030853;27;97142;-56
2023/09/29 02:44:46;;;;;;;5.63;5.23;;;;;;;18.80;62.40;101372.72;5036062;27;97786;-56
2023/09/29 02:47:11;;;;;;;6.53;4.60;;;;;;;18.81;62.34;101359.50;5034395;27;114185;-56
2023/09/29 02:49:37;;;;;;;4.93;4.50;;;;;;;18.80;62.14;101358.78;5036177;27;97080;-56
2023/09/29 02:52:06;;;;;;;5.73;5.33;;;;;;;18.81;62.31;101349.13;5035748;27;97160;-56
2023/09/29 02:54:31;;;;;;;6.77;4.93;;;;;;;18.82;62.35;101350.63;5035035;27;97100;-56
2023/09/29 02:56:56;;;;;;;5.70;5.20;;;;;;;18.83;62.60;101349.34;5034069;27;96856;-56
2023/09/29 02:59:24;;;;;;;4.63;4.23;;;;;;;18.83;62.42;101349.34;5035411;27;98140;-56
2023/09/29 03:01:49;;;;;;;5.30;4.90;;;;;;;18.84;62.43;101350.09;5035040;27;96933;-56
2023/09/29 03:04:15;;;;;;;4.87;4.47;;;;;;;18.85;62.57;101351.59;5033248;27;97232;-56
2023/09/29 03:06:40;;;;;;;5.27;4.73;;;;;;;18.87;62.48;101354.63;5032336;27;97501;-56
2023/09/29 03:09:10;;;;;;;5.17;4.77;;;;;;;18.85;62.51;101380.22;5035875;27;97405;-56
2023/09/29 03:11:39;;;;;;;5.10;4.73;;;;;;;18.88;62.52;101364.47;5033026;27;96958;-56
2023/09/29 03:14:05;;;;;;;4.83;4.43;;;;;;;18.89;62.59;101354.84;5034975;27;97249;-56
2023/09/29 03:16:30;;;;;;;5.37;4.83;;;;;;;18.89;62.59;101352.81;5036413;27;97431;-56
2023/09/29 03:18:55;;;;;;;5.93;5.20;;;;;;;18.90;62.80;101359.88;5038468;27;97071;-56
2023/09/29 03:21:21;;;;;;;5.37;4.87;;;;;;;18.90;62.67;101351.50;5035132;27;97776;-56
2023/09/29 03:23:46;;;;;;;5.83;5.20;;;;;;;18.89;62.44;101349.25;5035649;27;97277;-56
2023/09/29 03:26:17;;;;;;;5.07;4.63;;;;;;;18.86;62.71;101350.31;5038225;27;99442;-56
2023/09/29 03:28:43;;;;;;;5.80;5.30;;;;;;;18.88;62.67;101354.06;5037058;27;97117;-56
2023/09/29 03:31:08;;;;;;;5.07;4.67;;;;;;;18.88;62.58;101356.84;5038133;27;97150;-56
2023/09/29 03:33:35;;;;;;;6.10;5.50;;;;;;;18.88;62.51;101356.09;5041312;27;97584;-56
2023/09/29 03:36:00;;;;;;;5.97;5.47;;;;;;;18.89;62.72;101361.16;5038157;27;97592;-56
2023/09/29 03:38:26;;;;;;;5.13;4.67;;;;;;;18.92;62.74;101360.09;5037762;27;97311;-56
2023/09/29 03:40:52;;;;;;;5.70;5.30;;;;;;;18.93;62.69;101360.84;5036582;27;97102;-56
2023/09/29 03:43:22;;;;;;;5.50;4.90;;;;;;;18.95;62.88;101364.59;5038451;27;97042;-56
2023/09/29 03:45:49;;;;;;;5.63;5.17;;;;;;;18.97;62.90;101361.28;5033039;27;97219;-56
2023/09/29 03:48:15;;;;;;;6.03;5.47;;;;;;;18.95;62.75;101359.03;5038166;27;97127;-56
2023/09/29 03:50:41;;;;;;;4.93;4.57;;;;;;;18.95;62.63;101361.81;5040013;27;97105;-56
2023/09/29 03:53:06;;;;;;;5.10;4.70;;;;;;;18.96;62.68;101354.94;5037161;27;97111;-56
2023/09/29 03:55:33;;;;;;;4.93;4.63;;;;;;;18.95;62.71;101345.09;5034467;27;97242;-56
2023/09/29 03:57:58;;;;;;;6.80;5.43;;;;;;;18.94;62.66;101354.72;5036866;27;97330;-56
2023/09/29 04:00:24;;;;;;;5.23;4.83;;;;;;;18.92;62.82;101353.75;5036778;27;97229;-56
2023/09/29 04:02:50;;;;;;;5.80;5.40;;;;;;;18.91;62.79;101349.47;5037362;27;99210;-56
2023/09/29 04:05:17;;;;;;;5.97;5.20;;;;;;;18.92;62.68;101354.50;5034641;27;97034;-56
2023/09/29 04:07:43;;;;;;;5.60;5.03;;;;;;;18.92;62.75;101350.97;5033408;27;97257;-56
2023/09/29 04:10:09;;;;;;;5.47;5.07;;;;;;;18.92;62.75;101357.28;5036973;27;96883;-56
2023/09/29 04:12:44;;;;;;;6.20;5.30;;;;;;;18.91;62.80;101341.88;5034594;27;97254;-56
2023/09/29 04:15:10;;;;;;;5.53;5.13;;;;;;;18.89;62.80;101346.47;5036475;27;98469;-56
2023/09/29 04:17:35;;;;;;;5.87;5.33;;;;;;;18.88;62.95;101345.72;5037185;27;96715;-56
2023/09/29 04:20:02;;;;;;;5.93;5.43;;;;;;;18.89;63.00;101340.88;5034039;27;97294;-56
2023/09/29 04:22:27;;;;;;;5.40;5.00;;;;;;;18.89;62.85;101333.28;5038749;27;96898;-56
2023/09/29 04:24:53;;;;;;;5.90;5.40;;;;;;;18.88;62.77;101342.16;5041713;27;97485;-56
2023/09/29 04:27:18;;;;;;;4.63;4.33;;;;;;;18.88;62.84;101342.91;5035779;27;97166;-55
2023/09/29 04:29:43;;;;;;;6.03;5.50;;;;;;;18.89;63.16;101340.88;5036921;27;97149;-56
2023/09/29 04:32:09;;;;;;;6.03;5.43;;;;;;;18.88;63.20;101337.34;5037756;27;97071;-55
2023/09/29 04:34:34;;;;;;;5.83;5.30;;;;;;;18.88;63.06;101331.75;5035584;27;110044;-56
2023/09/29 04:36:59;;;;;;;6.20;5.27;;;;;;;18.89;63.11;101329.72;5037264;27;97043;-56
2023/09/29 04:39:25;;;;;;;5.27;4.87;;;;;;;18.87;63.06;101338.63;5038440;27;97245;-56
2023/09/29 04:41:50;;;;;;;5.70;5.30;;;;;;;18.88;62.96;101336.59;5036116;27;103111;-56
2023/09/29 04:44:15;;;;;;;6.10;5.60;;;;;;;18.87;63.12;101338.63;5036977;27;97906;-56
2023/09/29 04:46:42;;;;;;;6.10;5.37;;;;;;;18.89;63.21;101335.31;5039731;27;96717;-56
2023/09/29 04:49:07;;;;;;;6.17;5.57;;;;;;;18.88;62.95;101333.78;5036117;27;96933;-55
2023/09/29 04:51:33;;;;;;;6.20;5.13;;;;;;;18.89;63.14;101318.59;5035711;27;97457;-55
2023/09/29 04:53:59;;;;;;;7.40;5.70;;;;;;;18.91;63.27;101318.78;5035255;27;98086;-56
2023/09/29 04:56:25;;;;;;;6.30;5.67;;;;;;;18.92;63.14;101315.47;5035446;27;97226;-56
2023/09/29 04:58:50;;;;;;;6.13;5.50;;;;;;;18.91;63.41;101308.41;5037423;27;96951;-56
2023/09/29 05:01:19;;;;;;;7.00;6.30;;;;;;;18.91;63.16;101313.97;5038489;27;97430;-56
2023/09/29 05:03:47;;;;;;;6.47;5.60;;;;;;;18.90;63.22;101312.47;5036094;27;97004;-56
2023/09/29 05:06:15;;;;;;;6.00;5.50;;;;;;;18.90;63.38;101312.47;5036303;27;96809;-56
2023/09/29 05:08:41;;;;;;;5.60;5.20;;;;;;;18.91;63.37;101311.19;5035514;27;97061;-55
2023/09/29 05:11:06;;;;;;;6.17;5.67;;;;;;;18.92;63.62;101311.91;5034321;27;97267;-56
2023/09/29 05:13:34;;;;;;;5.70;5.10;;;;;;;18.93;63.40;101316.97;5036418;27;97866;-56
2023/09/29 05:16:00;;;;;;;6.23;5.70;;;;;;;18.94;63.19;101318.47;5037505;27;97225;-56
2023/09/29 05:18:25;;;;;;;5.33;4.93;;;;;;;18.94;63.56;101318.47;5031811;27;97081;-56
2023/09/29 05:20:51;;;;;;;6.70;6.10;;;;;;;18.95;63.31;101319.22;5034980;27;97014;-56
2023/09/29 05:23:16;;;;;;;5.60;5.10;;;;;;;18.94;63.41;101312.88;5034402;27;97726;-56
2023/09/29 05:25:46;;;;;;;8.87;5.60;;;;;;;18.95;63.48;101308.81;5033685;27;101937;-56
2023/09/29 05:28:12;;;;;;;6.20;5.80;;;;;;;18.95;63.45;101319.97;5032624;27;96788;-56
2023/09/29 05:30:37;;;;;;;8.17;6.30;;;;;;;18.98;63.42;101318.91;5037332;27;97120;-56
2023/09/29 05:33:03;;;;;;;5.00;4.60;;;;;;;18.99;63.42;101308.50;5033235;27;97187;-56
2023/09/29 05:35:28;;;;;;;5.77;5.37;;;;;;;18.98;63.57;101315.38;5034800;27;97237;-56
2023/09/29 05:37:54;;;;;;;5.67;5.17;;;;;;;19.00;63.38;101323.97;5035352;27;99552;-56
2023/09/29 05:40:19;;;;;;;7.53;5.40;;;;;;;19.01;63.58;101329.00;5033265;27;97100;-56
2023/09/29 05:42:44;;;;;;;8.50;6.03;;;;;;;19.01;63.59;101323.41;5032875;27;97027;-56
2023/09/29 05:45:12;;;;;;;5.83;5.33;;;;;;;19.02;63.48;101324.16;5035157;27;97136;-56
2023/09/29 05:47:37;;;;;;;5.23;4.83;;;;;;;19.03;63.60;101325.66;5039637;27;96987;-56
2023/09/29 05:50:03;;;;;;;6.53;6.00;;;;;;;19.04;63.50;101332.75;5035689;27;96665;-56
2023/09/29 05:52:29;;;;;;;6.13;4.90;;;;;;;19.06;63.54;101333.72;5033817;27;97156;-56
2023/09/29 05:54:54;;;;;;;6.23;5.00;;;;;;;19.09;63.68;101329.13;5037648;27;97072;-56
2023/09/29 05:57:20;;;;;;;5.70;5.20;;;;;;;19.07;63.64;101321.28;5037056;27;96747;-56
2023/09/29 05:59:46;;;;;;;6.73;6.13;;;;;;;19.08;63.58;101333.94;5041313;27;97580;-56
2023/09/29 06:02:11;;;;;;;6.40;5.70;;;;;;;19.10;63.68;101338.97;5036076;27;97807;-56
2023/09/29 06:04:36;;;;;;;6.00;5.47;;;;;;;19.11;63.63;101346.81;5034707;27;96905;-56
2023/09/29 06:07:02;;;;;;;5.93;5.43;;;;;;;19.12;63.62;101342.75;5035137;27;96792;-56
2023/09/29 06:09:29;;;;;;;6.33;5.67;;;;;;;19.12;63.78;101334.38;5035674;27;97203;-56
2023/09/29 06:11:54;;;;;;;5.67;5.27;;;;;;;19.13;63.81;101333.06;5036969;27;97053;-56
2023/09/29 06:14:20;;;;;;;6.80;6.20;;;;;;;19.15;63.98;101333.31;5034183;27;97051;-56
2023/09/29 06:16:45;;;;;;;5.80;5.30;;;;;;;19.15;63.79;101333.31;5036917;27;97185;-56
2023/09/29 06:19:11;;;;;;;5.70;5.10;;;;;;;19.16;63.87;101339.63;5036045;27;97064;-56
2023/09/29 06:21:36;;;;;;;6.00;5.47;;;;;;;19.17;63.80;101339.09;5027666;27;98744;-56
2023/09/29 06:24:02;;;;;;;5.60;5.20;;;;;;;19.18;64.02;101346.16;5035567;27;97560;-56
2023/09/29 06:26:27;;;;;;;5.57;5.17;;;;;;;19.20;63.92;101340.81;5036000;27;97173;-56
2023/09/29 06:28:53;;;;;;;6.13;5.53;;;;;;;19.23;63.95;101341.78;5034468;27;97060;-56
2023/09/29 06:31:18;;;;;;;6.40;5.90;;;;;;;19.27;63.93;101350.56;5034154;27;97345;-56
2023/09/29 06:33:43;;;;;;;5.80;5.20;;;;;;;19.29;63.97;101339.63;5035649;27;97142;-56
2023/09/29 06:36:08;;;;;;;9.50;5.80;;;;;;;19.33;63.96;101342.88;5034272;27;97367;-56
2023/09/29 06:38:34;;;;;;;7.10;5.20;;;;;;;19.37;64.13;101343.31;5033141;27;97319;-56
2023/09/29 06:40:59;;;;;;;4.93;4.63;;;;;;;19.39;64.20;101330.34;5034231;27;97459;-56
2023/09/29 06:43:24;;;;;;;6.33;5.83;;;;;;;19.41;64.16;101322.19;5036937;27;97024;-56
2023/09/29 06:45:50;;;;;;;7.80;6.00;;;;;;;19.44;64.09;101318.28;5031925;27;96738;-56
2023/09/29 06:48:15;;;;;;;7.30;6.60;;;;;;;19.47;64.17;101308.09;5035484;27;97214;-56
2023/09/29 06:50:40;;;;;;;8.50;7.47;;;;;;;19.51;64.48;101308.50;5033910;27;111264;-56
2023/09/29 06:53:06;;;;;;;6.77;6.17;;;;;;;19.54;64.54;101312.28;5038035;27;97467;-56
2023/09/29 06:55:31;;;;;;;7.37;6.60;;;;;;;19.57;64.27;101320.31;5036027;27;96773;-56
2023/09/29 06:57:58;;;;;;;6.63;6.10;;;;;;;19.62;64.46;101324.28;5036355;27;99667;-56
2023/09/29 07:00:24;;;;;;;6.20;5.60;;;;;;;19.65;64.48;101332.34;5037246;27;97006;-56
2023/09/29 07:02:50;;;;;;;7.10;6.50;;;;;;;19.69;64.47;101327.19;5039616;27;97255;-56
2023/09/29 07:05:15;;;;;;;7.00;6.30;;;;;;;19.73;64.45;101333.19;5040204;27;97362;-56
2023/09/29 07:07:41;;;;;;;6.80;6.20;;;;;;;19.75;64.27;101330.59;5033189;27;96847;-56
2023/09/29 07:10:07;;;;;;;7.37;6.67;;;;;;;19.78;64.28;101329.53;5036032;27;97901;-56
2023/09/29 07:12:32;;;;;;;7.03;6.17;;;;;;;19.80;64.53;101332.53;5038174;27;97816;-56
2023/09/29 07:14:58;;;;;;;5.77;5.30;;;;;;;19.83;64.54;101327.91;5036567;27;97046;-56
2023/09/29 07:17:23;;;;;;;6.30;5.70;;;;;;;19.85;64.39;101334.47;5038773;27;97035;-56
2023/09/29 07:19:48;;;;;;;6.53;5.93;;;;;;;19.88;64.41;101327.00;5037854;27;97348;-56
2023/09/29 07:22:14;;;;;;;7.47;6.73;;;;;;;19.91;64.50;101332.28;5038823;27;98519;-56
2023/09/29 07:24:41;;;;;;;6.30;5.70;;;;;;;19.95;64.54;101329.16;5036640;27;96854;-56
2023/09/29 07:27:08;;;;;;;8.27;5.73;;;;;;;19.98;64.36;101328.84;5037416;27;97493;-56
2023/09/29 07:29:34;;;;;;;6.10;5.10;;;;;;;20.03;64.36;101327.94;5035873;27;97768;-56
2023/09/29 07:31:59;;;;;;;6.43;5.80;;;;;;;20.05;64.40;101325.34;5036284;27;97161;-56
2023/09/29 07:34:27;;;;;;;5.73;5.23;;;;;;;20.08;64.49;101337.50;5037691;27;97423;-56
2023/09/29 07:36:52;;;;;;;6.87;6.23;;;;;;;20.11;64.57;101330.84;5037027;27;96993;-56
2023/09/29 07:39:18;;;;;;;6.00;5.50;;;;;;;20.15;64.58;101334.03;5036998;27;97468;-56
2023/09/29 07:41:43;;;;;;;6.43;5.90;;;;;;;20.14;64.53;101324.13;5038496;27;97302;-56
2023/09/29 07:44:09;;;;;;;5.30;4.90;;;;;;;20.21;64.43;101311.56;5036135;27;97644;-56
2023/09/29 07:46:35;;;;;;;6.13;5.63;;;;;;;20.24;64.58;101316.09;5037735;27;96823;-56
2023/09/29 07:49:01;;;;;;;6.00;5.50;;;;;;;20.26;64.58;101321.88;5039281;27;97895;-56
2023/09/29 07:51:27;;;;;;;5.43;5.00;;;;;;;20.32;64.76;101325.28;5037392;27;97020;-56
2023/09/29 07:53:53;;;;;;;4.97;4.67;;;;;;;20.35;64.73;101327.00;5034743;27;97353;-56
2023/09/29 07:56:18;;;;;;;5.90;5.40;;;;;;;20.40;64.75;101324.06;5037544;27;97398;-56
2023/09/29 07:58:43;;;;;;;5.03;4.63;;;;;;;20.46;64.63;101326.75;5036675;27;97105;-56
2023/09/29 08:01:10;;;;;;;5.77;5.30;;;;;;;20.51;64.67;101334.97;5037633;27;97136;-56
2023/09/29 08:03:35;;;;;;;5.13;4.63;;;;;;;20.57;64.75;101326.47;5034965;27;96854;-56
2023/09/29 08:06:01;;;;;;;5.37;4.97;;;;;;;20.65;64.79;101330.81;5038084;27;96835;-56
2023/09/29 08:08:26;;;;;;;7.93;4.97;;;;;;;20.72;64.72;101327.34;5035386;27;97166;-56
2023/09/29 08:10:52;;;;;;;4.80;4.40;;;;;;;20.82;64.64;101342.34;5036674;27;97429;-56
2023/09/29 08:13:18;;;;;;;5.00;4.50;;;;;;;20.86;64.75;101336.38;5035952;27;96741;-56
2023/09/29 08:15:44;;;;;;;4.73;4.33;;;;;;;20.95;64.74;101341.50;5037450;27;96971;-56
2023/09/29 08:18:10;;;;;;;4.20;3.90;;;;;;;21.01;64.74;101330.16;5040863;27;97994;-56
2023/09/29 08:20:35;;;;;;;4.13;3.80;;;;;;;21.08;64.77;101326.72;5035594;27;96801;-56
2023/09/29 08:23:00;;;;;;;4.53;4.00;;;;;;;21.14;64.88;101336.44;5038580;27;96834;-56
2023/09/29 08:25:26;;;;;;;5.87;4.27;;;;;;;21.18;65.02;101334.06;5037016;27;99427;-56
2023/09/29 08:27:51;;;;;;;3.77;3.47;;;;;;;21.25;64.74;101336.13;5034776;27;96763;-56
2023/09/29 08:30:17;;;;;;;3.77;3.57;;;;;;;21.32;64.78;101337.47;5035039;27;97085;-56
2023/09/29 08:32:43;;;;;;;3.60;3.40;;;;;;;21.38;64.81;101335.28;5034663;27;97714;-56
2023/09/29 08:35:13;;;;;;;5.70;3.70;;;;;;;21.45;64.94;101334.56;5034854;27;97571;-56
2023/09/29 08:37:41;;;;;;;4.03;3.73;;;;;;;21.51;64.58;101326.78;5038440;27;99596;-56
2023/09/29 08:40:09;;;;;;;4.33;3.00;;;;;;;21.58;64.60;101328.84;5037323;27;97069;-56
2023/09/29 08:42:36;;;;;;;3.63;3.33;;;;;;;21.64;64.58;101324.56;5033143;27;97071;-56
2023/09/29 08:45:10;;;;;;;3.20;2.90;;;;;;;21.70;64.61;101324.41;5035667;27;97002;-55
2023/09/29 08:47:37;;;;;;;4.03;3.40;;;;;;;21.73;64.58;101312.13;5036739;27;96801;-56
2023/09/29 08:50:06;;;;;;;4.80;3.10;;;;;;;21.77;64.46;101318.09;5035849;27;96988;-56
2023/09/29 08:52:32;;;;;;;3.23;2.93;;;;;;;21.81;64.57;101306.53;5038241;27;96791;-56
2023/09/29 08:54:59;;;;;;;3.20;2.90;;;;;;;21.85;64.50;101310.50;5034893;27;97113;-56
2023/09/29 08:57:25;;;;;;;4.60;3.50;;;;;;;21.89;64.40;101307.31;5036146;27;97270;-56
2023/09/29 08:59:52;;;;;;;3.80;3.50;;;;;;;21.93;64.45;101310.53;5033262;27;97048;-56
2023/09/29 09:02:18;;;;;;;3.83;3.53;;;;;;;21.96;64.55;101304.56;5035937;27;96936;-56
2023/09/29 09:04:44;;;;;;;3.40;3.20;;;;;;;22.02;64.56;101309.97;5037038;27;97217;-57
2023/09/29 09:07:09;;;;;;;4.27;3.33;;;;;;;22.06;64.41;101315.97;5037680;27;101926;-56
2023/09/29 09:09:36;;;;;;;3.60;3.20;;;;;;;22.11;64.41;101313.00;5036077;27;97206;-56
2023/09/29 09:12:02;;;;;;;3.70;3.40;;;;;;;22.20;64.38;101301.25;5035834;27;97162;-56
2023/09/29 09:14:41;;;;;;;3.73;3.40;;;;;;;22.29;64.44;101302.75;5032089;27;97256;-56
2023/09/29 09:17:07;;;;;;;3.67;3.37;;;;;;;22.35;64.26;101298.47;5038397;27;97465;-56
2023/09/29 09:19:42;;;;;;;4.60;3.20;;;;;;;22.42;64.07;101290.59;5036813;27;96981;-56
2023/09/29 09:22:26;;;;;;;3.43;3.13;;;;;;;22.49;64.08;101298.28;5035253;27;97167;-56
2023/09/29 09:25:00;;;;;;;4.07;3.37;;;;;;;22.55;63.93;101296.78;5036646;27;96843;-56
2023/09/29 09:27:25;;;;;;;2.73;2.53;;;;;;;22.60;63.64;101297.94;5035603;27;97470;-56
2023/09/29 09:29:51;;;;;;;3.20;3.00;;;;;;;22.64;63.90;101293.44;5035345;27;97241;-56
2023/09/29 09:32:29;;;;;;;3.33;3.03;;;;;;;22.68;63.67;101291.00;5036426;27;97747;-56
2023/09/29 09:34:54;;;;;;;2.73;2.53;;;;;;;22.72;63.75;101287.81;5034473;27;97328;-56
2023/09/29 09:37:26;;;;;;;3.00;2.40;;;;;;;22.79;63.53;101281.47;5034084;27;96825;-56
2023/09/29 09:39:55;;;;;;;3.30;3.00;;;;;;;22.84;63.13;101277.72;5035137;27;96821;-56
2023/09/29 09:42:24;;;;;;;2.97;2.67;;;;;;;22.92;63.30;101278.44;5033108;27;97009;-56
2023/09/29 09:44:50;;;;;;;4.97;3.03;;;;;;;22.99;63.15;101284.06;5035144;27;97015;-56
2023/09/29 09:47:16;;;;;;;3.27;2.77;;;;;;;23.08;63.06;101277.13;5036712;27;97597;-56
2023/09/29 09:49:47;;;;;;;3.47;2.83;;;;;;;23.19;63.18;101278.75;5036112;27;97275;-56
2023/09/29 09:52:44;;;;;;;3.17;2.87;;;;;;;23.33;62.94;101278.00;5035301;27;97152;-56
2023/09/29 09:55:11;;;;;;;2.53;2.33;;;;;;;23.49;62.78;101279.44;5031445;27;97052;-56
2023/09/29 09:57:38;;;;;;;3.03;2.73;;;;;;;23.62;62.56;101281.25;5033348;27;97195;-56
2023/09/29 10:00:12;;;;;;;2.70;2.50;;;;;;;23.72;62.16;101285.69;5034733;27;97653;-56
2023/09/29 10:02:40;;;;;;;2.67;2.43;;;;;;;23.79;61.89;101273.66;5031277;27;97433;-56
2023/09/29 10:05:16;;;;;;;2.83;2.63;;;;;;;23.88;61.81;101261.06;5036025;27;97270;-55
2023/09/29 10:07:48;;;;;;;2.80;2.50;;;;;;;23.93;61.62;101267.78;5033216;27;98464;-56
2023/09/29 10:10:32;;;;;;;2.20;2.10;;;;;;;23.97;61.46;101270.94;5033914;27;97531;-56
2023/09/29 10:12:58;;;;;;;2.67;2.47;;;;;;;24.03;61.56;101271.47;5038324;27;96777;-55
2023/09/29 10:15:29;;;;;;;3.70;2.47;;;;;;;24.11;61.37;101278.56;5032837;27;97153;-56
2023/09/29 10:17:58;;;;;;;3.23;3.03;;;;;;;24.27;61.50;101285.56;5034586;27;96987;-56
2023/09/29 10:20:26;;;;;;;2.30;2.10;;;;;;;24.40;60.68;101287.34;5036538;27;97011;-56
2023/09/29 10:23:06;;;;;;;5.93;2.70;;;;;;;24.47;60.22;101281.66;5038234;27;96851;-55
2023/09/29 10:25:33;;;;;;;8.00;2.80;;;;;;;24.57;60.74;101281.78;5034855;27;96812;-56
2023/09/29 10:28:11;;;;;;;2.17;1.97;;;;;;;24.66;60.04;101277.59;5034146;27;97379;-56
2023/09/29 10:30:39;;;;;;;2.57;2.37;;;;;;;24.74;60.15;101279.00;5033329;27;97282;-57
2023/09/29 10:33:07;;;;;;;2.40;2.20;;;;;;;24.82;59.87;101279.69;5040559;27;96885;-56
2023/09/29 10:35:34;;;;;;;4.60;2.50;;;;;;;24.85;59.50;101281.38;5041069;27;96870;-56
2023/09/29 10:38:07;;;;;;;3.33;2.40;;;;;;;24.88;59.42;101279.47;5035007;27;97545;-56
2023/09/29 10:40:32;;;;;;;2.70;2.50;;;;;;;24.89;59.58;101275.31;5032430;27;97735;-56
2023/09/29 10:43:02;;;;;;;2.33;2.13;;;;;;;24.94;59.18;101275.09;5034150;27;97057;-56
2023/09/29 10:45:36;;;;;;;2.53;2.33;;;;;;;25.02;59.15;101275.75;5036945;27;97267;-56
2023/09/29 10:48:07;;;;;;;2.77;2.20;;;;;;;25.09;58.67;101262.91;5032126;27;96990;-56
2023/09/29 10:50:43;;;;;;;2.43;2.23;;;;;;;25.17;58.28;101258.69;5035319;27;96993;-56
2023/09/29 10:53:08;;;;;;;2.77;2.37;;;;;;;25.17;58.61;101247.41;5033230;27;96766;-56
2023/09/29 10:55:46;;;;;;;2.60;2.40;;;;;;;25.21;58.67;101250.56;5034553;27;97105;-56
2023/09/29 10:58:13;;;;;;;4.43;1.70;;;;;;;25.27;58.41;101248.22;5035403;27;96876;-56
2023/09/29 11:00:50;;;;;;;2.37;2.00;;;;;;;25.30;58.12;101243.50;5035706;27;96931;-57
2023/09/29 11:03:21;;;;;;;3.47;2.70;;;;;;;25.38;58.37;101237.78;5036002;27;96950;-56
2023/09/29 11:05:55;;;;;;;2.37;2.17;;;;;;;25.52;57.99;101234.03;5032872;27;96886;-57
2023/09/29 11:08:31;;;;;;;2.40;2.20;;;;;;;25.72;57.79;101226.44;5040595;27;98478;-57
2023/09/29 11:10:59;;;;;;;2.90;2.53;;;;;;;25.90;57.72;101230.69;5034130;27;97166;-56
2023/09/29 11:13:26;;;;;;;2.63;2.23;;;;;;;25.99;57.42;101227.19;5033201;27;97107;-57
2023/09/29 11:15:52;;;;;;;2.40;2.20;;;;;;;26.11;57.15;101228.13;5033297;27;97122;-56
2023/09/29 11:18:32;;;;;;;5.07;2.77;;;;;;;26.22;56.78;101221.94;5036594;27;97250;-57
2023/09/29 11:21:05;;;;;;;2.13;1.93;;;;;;;26.36;56.92;101222.28;5033166;27;97238;-57
2023/09/29 11:23:47;;;;;;;2.40;2.20;;;;;;;26.50;56.35;101224.09;5033539;27;97381;-56